Time;durP1;ratioP1;P1;durP2;ratioP2;P2;SDS_P1;SDS_P2;PMS_P1;PMS_P2;Temp;Humidity;BMP_temperature;BMP_pressure;BME280_temperature;BME280_humidity;BME280_pressure;Samples;Min_cycle;Max_cycle;Signal;HPM_P1;HPM_P2
2022/03/19 00:00:14;;;;;;;19.67;14.45;;;6.70;99.90;;;;;;5033483;28;20266;-81
2022/03/19 00:02:43;;;;;;;17.48;15.48;;;6.70;99.90;;;;;;5033413;28;20234;-81
2022/03/19 00:05:12;;;;;;;25.58;18.70;;;6.70;99.90;;;;;;5033519;28;20222;-80
2022/03/19 00:07:42;;;;;;;20.83;16.55;;;6.70;99.90;;;;;;5033419;28;20291;-81
2022/03/19 00:10:11;;;;;;;18.67;14.57;;;6.60;99.90;;;;;;5032309;28;20321;-81
2022/03/19 00:12:40;;;;;;;21.67;15.02;;;6.60;99.90;;;;;;5033338;28;20334;-80
2022/03/19 00:15:10;;;;;;;17.30;15.50;;;6.60;99.90;;;;;;5033000;28;20202;-81
2022/03/19 00:17:39;;;;;;;20.05;16.55;;;6.60;99.90;;;;;;5033359;28;20289;-81
2022/03/19 00:20:08;;;;;;;21.75;17.75;;;6.60;99.90;;;;;;5033183;28;20229;-80
2022/03/19 00:22:38;;;;;;;18.48;16.55;;;6.60;99.90;;;;;;5033002;28;20230;-81
2022/03/19 00:25:11;;;;;;;20.15;15.30;;;6.50;99.90;;;;;;5033016;28;20219;-81
2022/03/19 00:27:41;;;;;;;17.50;15.27;;;6.50;99.90;;;;;;5033062;28;20268;-80
2022/03/19 00:30:10;;;;;;;21.38;17.08;;;6.40;99.90;;;;;;5032477;28;20388;-81
2022/03/19 00:32:39;;;;;;;29.45;17.00;;;6.30;99.90;;;;;;5032523;28;20207;-80
2022/03/19 00:35:08;;;;;;;18.75;16.83;;;6.30;99.90;;;;;;5032791;28;20202;-80
2022/03/19 00:37:44;;;;;;;18.45;16.55;;;6.20;99.90;;;;;;5032961;28;20207;-81
2022/03/19 00:40:15;;;;;;;20.42;17.08;;;6.30;99.90;;;;;;5032556;28;20238;-81
2022/03/19 00:42:44;;;;;;;17.83;15.82;;;6.20;99.90;;;;;;5032738;28;20280;-81
2022/03/19 00:45:13;;;;;;;17.08;15.27;;;6.20;99.90;;;;;;5032538;28;20253;-81
2022/03/19 00:47:42;;;;;;;27.73;18.38;;;6.20;99.90;;;;;;5032545;28;20226;-80
2022/03/19 00:50:11;;;;;;;17.88;15.98;;;6.20;99.90;;;;;;5032637;28;20230;-81
2022/03/19 00:52:39;;;;;;;17.85;15.85;;;6.20;99.90;;;;;;5032574;28;20297;-80
2022/03/19 00:55:09;;;;;;;20.30;16.23;;;6.30;99.90;;;;;;5033302;28;20233;-81
2022/03/19 00:57:43;;;;;;;21.02;15.80;;;6.30;99.90;;;;;;5032836;28;20241;-81
2022/03/19 01:00:14;;;;;;;21.98;17.60;;;6.20;99.90;;;;;;5032429;28;20236;-80
2022/03/19 01:02:43;;;;;;;22.55;16.13;;;6.20;99.90;;;;;;5032516;28;20206;-81
2022/03/19 01:05:13;;;;;;;19.80;17.02;;;6.20;99.90;;;;;;5032643;28;20232;-80
2022/03/19 01:07:44;;;;;;;18.98;16.88;;;6.20;99.90;;;;;;5032683;28;20207;-81
2022/03/19 01:10:14;;;;;;;23.33;17.30;;;6.20;99.90;;;;;;5032448;28;20260;-81
2022/03/19 01:12:43;;;;;;;21.52;16.20;;;6.20;99.90;;;;;;5032395;28;20280;-81
2022/03/19 01:15:12;;;;;;;17.85;16.10;;;6.10;99.90;;;;;;5032365;28;20230;-81
2022/03/19 01:17:40;;;;;;;19.10;16.92;;;6.10;99.90;;;;;;5032557;28;20297;-81
2022/03/19 01:20:10;;;;;;;19.40;16.77;;;6.00;99.90;;;;;;5032288;28;20261;-80
2022/03/19 01:22:40;;;;;;;18.20;15.60;;;6.00;99.90;;;;;;5036574;28;20202;-80
2022/03/19 01:25:09;;;;;;;23.83;17.23;;;6.00;99.90;;;;;;5036383;28;20257;-81
2022/03/19 01:27:39;;;;;;;26.42;16.15;;;5.90;99.90;;;;;;5036082;28;20289;-81
2022/03/19 01:30:12;;;;;;;23.67;16.98;;;5.90;99.90;;;;;;5036651;28;20245;-80
2022/03/19 01:32:40;;;;;;;18.67;15.88;;;5.90;99.90;;;;;;5036107;28;20202;-80
2022/03/19 01:35:10;;;;;;;21.50;15.35;;;5.80;99.90;;;;;;5036093;28;20222;-80
2022/03/19 01:37:40;;;;;;;17.73;15.82;;;5.80;99.90;;;;;;5036109;28;20210;-81
2022/03/19 01:40:10;;;;;;;18.17;15.95;;;5.80;99.90;;;;;;5035993;28;20293;-80
2022/03/19 01:42:41;;;;;;;23.95;16.08;;;5.80;99.90;;;;;;5035779;28;20228;-81
2022/03/19 01:45:13;;;;;;;19.50;17.30;;;5.70;99.90;;;;;;5036001;28;20249;-81
2022/03/19 01:47:41;;;;;;;34.00;16.98;;;5.70;99.90;;;;;;5035971;28;20210;-81
2022/03/19 01:50:11;;;;;;;19.23;16.40;;;5.60;99.90;;;;;;5035677;28;20237;-81
2022/03/19 01:52:40;;;;;;;22.63;17.55;;;5.70;99.90;;;;;;5035500;28;20288;-80
2022/03/19 01:55:10;;;;;;;23.45;17.65;;;5.70;99.90;;;;;;5035704;28;20202;-81
2022/03/19 01:57:42;;;;;;;17.63;15.27;;;5.60;99.90;;;;;;5036170;28;20234;-81
2022/03/19 02:00:16;;;;;;;22.10;17.20;;;5.60;99.90;;;;;;5035670;28;20198;-81
2022/03/19 02:02:45;;;;;;;19.25;16.13;;;5.60;99.90;;;;;;5035316;28;20202;-81
2022/03/19 02:05:15;;;;;;;19.48;15.68;;;5.60;99.90;;;;;;5035702;28;20207;-80
2022/03/19 02:07:45;;;;;;;18.33;15.15;;;5.60;99.90;;;;;;5035871;28;20241;-81
2022/03/19 02:10:14;;;;;;;17.92;15.35;;;5.50;99.90;;;;;;5036170;28;20241;-80
2022/03/19 02:12:43;;;;;;;15.90;14.02;;;5.50;99.90;;;;;;5035843;28;20283;-81
2022/03/19 02:15:14;;;;;;;20.27;15.35;;;5.50;99.90;;;;;;5035061;28;20234;-81
2022/03/19 02:17:43;;;;;;;22.90;16.23;;;5.40;99.90;;;;;;5035249;28;20215;-81
2022/03/19 02:20:13;;;;;;;17.52;14.30;;;5.40;99.90;;;;;;5035224;28;20206;-80
2022/03/19 02:22:41;;;;;;;17.50;14.57;;;5.40;99.90;;;;;;5035025;28;20256;-81
2022/03/19 02:27:57;;;;;;;22.33;15.45;;;5.40;99.90;;;;;;5035405;28;20211;-80
2022/03/19 02:30:25;;;;;;;20.08;15.32;;;5.40;99.90;;;;;;5034709;28;20210;-80
2022/03/19 02:32:54;;;;;;;18.20;15.38;;;5.40;99.90;;;;;;5034324;28;20238;-80
2022/03/19 02:35:22;;;;;;;15.93;14.07;;;5.30;99.90;;;;;;5034960;28;20207;-80
2022/03/19 02:37:51;;;;;;;17.75;15.80;;;5.30;99.90;;;;;;5035479;28;20293;-80
2022/03/19 02:40:22;;;;;;;17.05;14.65;;;5.30;99.90;;;;;;5035001;28;20236;-81
2022/03/19 02:42:53;;;;;;;17.10;14.02;;;5.20;99.90;;;;;;5034583;28;20234;-80
2022/03/19 02:45:22;;;;;;;18.30;14.23;;;5.20;99.90;;;;;;5034696;28;20230;-81
2022/03/19 02:48:00;;;;;;;19.23;15.70;;;5.10;99.90;;;;;;5034872;28;20214;-80
2022/03/19 02:50:31;;;;;;;19.88;15.93;;;5.10;99.90;;;;;;5034593;28;20225;-80
2022/03/19 02:53:01;;;;;;;19.65;15.82;;;5.10;99.90;;;;;;5034750;28;20216;-80
2022/03/19 02:55:35;;;;;;;21.35;15.43;;;5.00;99.90;;;;;;5035072;28;20199;-80
2022/03/19 02:58:04;;;;;;;16.98;14.82;;;5.00;99.90;;;;;;5035022;28;20249;-80
2022/03/19 03:00:33;;;;;;;23.20;17.85;;;5.10;99.90;;;;;;5034168;28;20222;-80
2022/03/19 03:03:02;;;;;;;18.80;16.33;;;5.00;99.90;;;;;;5034701;28;20199;-81
2022/03/19 03:05:30;;;;;;;17.88;15.77;;;5.00;99.90;;;;;;5034775;28;20241;-80
2022/03/19 03:07:59;;;;;;;17.58;15.73;;;4.90;99.90;;;;;;5034470;28;20278;-80
2022/03/19 03:10:27;;;;;;;19.90;16.88;;;4.90;99.90;;;;;;5034003;28;20249;-80
2022/03/19 03:12:57;;;;;;;15.90;14.23;;;4.90;99.90;;;;;;5034362;28;20297;-81
2022/03/19 03:15:25;;;;;;;16.13;14.50;;;4.80;99.90;;;;;;5034610;28;20202;-80
2022/03/19 03:17:53;;;;;;;26.95;17.73;;;4.70;99.90;;;;;;5034245;28;20289;-81
2022/03/19 03:20:22;;;;;;;17.77;15.60;;;4.70;99.90;;;;;;5033935;28;20214;-80
2022/03/19 03:22:50;;;;;;;16.42;14.52;;;4.60;99.90;;;;;;5034001;28;20229;-80
2022/03/19 03:25:18;;;;;;;17.30;15.13;;;4.70;99.90;;;;;;5034297;28;20298;-80
2022/03/19 03:27:47;;;;;;;18.65;16.52;;;4.60;99.90;;;;;;5033853;28;20254;-80
2022/03/19 03:30:18;;;;;;;22.85;15.27;;;4.50;99.90;;;;;;5033877;28;20207;-81
2022/03/19 03:32:47;;;;;;;19.90;16.92;;;4.50;99.90;;;;;;5034046;28;20210;-81
2022/03/19 03:35:15;;;;;;;19.10;16.05;;;4.40;99.90;;;;;;5033717;28;20293;-80
2022/03/19 03:37:44;;;;;;;16.52;14.75;;;4.40;99.90;;;;;;5034531;28;20202;-81
2022/03/19 03:40:12;;;;;;;25.23;16.33;;;4.50;99.90;;;;;;5034068;28;20270;-80
2022/03/19 03:42:41;;;;;;;20.65;15.00;;;4.40;99.90;;;;;;5034024;28;20298;-81
2022/03/19 03:45:10;;;;;;;19.08;16.30;;;4.40;99.90;;;;;;5032846;28;20206;-81
2022/03/19 03:47:40;;;;;;;17.05;14.25;;;4.40;99.90;;;;;;5033564;28;20221;-81
2022/03/19 03:50:10;;;;;;;19.40;15.93;;;4.40;99.90;;;;;;5033448;28;20293;-81
2022/03/19 03:52:38;;;;;;;16.80;14.38;;;4.40;99.90;;;;;;5033498;28;20237;-81
2022/03/19 03:55:08;;;;;;;14.98;13.48;;;4.40;99.90;;;;;;5033776;28;20237;-81
2022/03/19 03:57:37;;;;;;;15.45;13.90;;;4.30;99.90;;;;;;5033695;28;20234;-81
2022/03/19 04:00:08;;;;;;;16.73;14.18;;;4.30;99.90;;;;;;5033259;28;20241;-81
2022/03/19 04:02:37;;;;;;;15.85;13.70;;;4.30;99.90;;;;;;5033167;28;20215;-80
2022/03/19 04:05:09;;;;;;;17.50;14.52;;;4.40;99.90;;;;;;5033276;28;20252;-80
2022/03/19 04:07:37;;;;;;;15.73;14.07;;;4.30;99.90;;;;;;5033071;28;20256;-80
2022/03/19 04:10:06;;;;;;;16.65;14.00;;;4.30;99.90;;;;;;5033527;28;20364;-81
2022/03/19 04:12:35;;;;;;;15.15;13.57;;;4.30;99.90;;;;;;5033025;28;20297;-80
2022/03/19 04:15:04;;;;;;;15.43;13.80;;;4.30;99.90;;;;;;5033214;28;20241;-81
2022/03/19 04:17:33;;;;;;;20.27;16.40;;;4.30;99.90;;;;;;5033219;28;20345;-80
2022/03/19 04:20:01;;;;;;;18.80;15.23;;;4.40;99.90;;;;;;5033205;28;20241;-80
2022/03/19 04:22:36;;;;;;;17.45;13.38;;;4.40;99.90;;;;;;5033649;28;20317;-81
2022/03/19 04:25:06;;;;;;;19.92;13.70;;;4.40;99.90;;;;;;5033117;28;20213;-80
2022/03/19 04:27:34;;;;;;;17.23;15.13;;;4.40;99.90;;;;;;5032682;28;20289;-80
2022/03/19 04:30:02;;;;;;;18.40;13.52;;;4.50;99.90;;;;;;5033168;28;20246;-80
2022/03/19 04:32:31;;;;;;;15.88;14.15;;;4.50;99.90;;;;;;5032619;28;20249;-80
2022/03/19 04:36:29;;;;;;;19.02;15.73;;;4.50;99.90;;;;;;5032526;28;20271;-81
2022/03/19 04:37:49;;;;;;;20.45;17.20;;;4.50;99.90;;;;;;5033132;28;20198;-80
2022/03/19 04:40:17;;;;;;;21.25;15.82;;;4.40;99.90;;;;;;5032528;28;20233;-81
2022/03/19 04:42:46;;;;;;;16.50;14.80;;;4.40;99.90;;;;;;5032529;28;20297;-81
2022/03/19 04:45:14;;;;;;;19.40;15.00;;;4.40;99.90;;;;;;5032652;28;20244;-81
2022/03/19 04:47:42;;;;;;;19.13;16.35;;;4.30;99.90;;;;;;5032732;28;20273;-81
2022/03/19 04:50:11;;;;;;;20.17;16.83;;;4.20;99.90;;;;;;5032611;28;20237;-81
2022/03/19 04:52:40;;;;;;;16.50;14.63;;;4.20;99.90;;;;;;5032253;28;20233;-80
2022/03/19 04:55:11;;;;;;;21.52;16.08;;;4.20;99.90;;;;;;5032455;28;20218;-80
2022/03/19 04:57:40;;;;;;;25.52;18.77;;;4.20;99.90;;;;;;5032908;28;20233;-81
2022/03/19 05:00:10;;;;;;;19.80;17.35;;;4.20;99.90;;;;;;5032531;28;20293;-81
2022/03/19 05:02:39;;;;;;;21.60;17.30;;;4.20;99.90;;;;;;5032505;28;20241;-81
2022/03/19 05:05:08;;;;;;;24.02;17.58;;;4.20;99.90;;;;;;5032973;28;20274;-80
2022/03/19 05:07:37;;;;;;;24.15;19.15;;;4.20;99.90;;;;;;5032752;28;20245;-81
2022/03/19 05:12:55;;;;;;;23.23;18.13;;;4.30;99.90;;;;;;5032458;28;20249;-80
2022/03/19 05:15:26;;;;;;;24.38;18.95;;;4.20;99.90;;;;;;5032341;28;20213;-81
2022/03/19 05:17:55;;;;;;;25.50;18.98;;;4.20;99.90;;;;;;5032307;28;20233;-81
2022/03/19 05:20:23;;;;;;;23.90;18.92;;;4.20;99.90;;;;;;5032128;28;20301;-81
2022/03/19 05:22:51;;;;;;;20.98;17.55;;;4.20;99.90;;;;;;5032274;28;20202;-80
2022/03/19 05:25:19;;;;;;;21.75;17.65;;;4.20;99.90;;;;;;5032210;28;20209;-80
2022/03/19 05:27:48;;;;;;;20.25;17.58;;;4.20;99.90;;;;;;5032064;28;20310;-80
2022/03/19 05:30:22;;;;;;;20.05;17.92;;;4.20;99.90;;;;;;5032056;28;20214;-80
2022/03/19 05:32:51;;;;;;;19.50;16.83;;;4.10;99.90;;;;;;5032065;28;20289;-81
2022/03/19 05:35:22;;;;;;;23.42;18.60;;;4.00;99.90;;;;;;5032296;28;20213;-80
2022/03/19 05:37:50;;;;;;;22.90;18.67;;;4.00;99.90;;;;;;5032310;28;20214;-80
2022/03/19 05:40:19;;;;;;;20.05;16.95;;;4.00;99.90;;;;;;5031860;28;20246;-81
2022/03/19 05:42:47;;;;;;;21.95;18.98;;;4.00;99.90;;;;;;5031943;28;20202;-80
2022/03/19 05:45:16;;;;;;;27.42;19.83;;;4.10;99.90;;;;;;5031942;28;20304;-80
2022/03/19 05:47:45;;;;;;;23.58;17.98;;;4.20;99.90;;;;;;5032002;28;20314;-80
2022/03/19 05:50:15;;;;;;;20.45;16.20;;;4.20;99.90;;;;;;5031972;28;20274;-80
2022/03/19 05:52:45;;;;;;;23.25;18.58;;;4.30;99.90;;;;;;5031723;28;20237;-80
2022/03/19 05:55:14;;;;;;;19.83;17.42;;;4.30;99.90;;;;;;5032281;28;20214;-81
2022/03/19 05:57:42;;;;;;;21.70;18.40;;;4.40;99.90;;;;;;5031971;28;20229;-80
2022/03/19 06:00:12;;;;;;;19.75;17.40;;;4.40;99.90;;;;;;5031436;28;20225;-81
2022/03/19 06:02:41;;;;;;;21.13;16.95;;;4.50;99.90;;;;;;5031685;28;20226;-81
2022/03/19 06:05:13;;;;;;;17.48;15.27;;;4.50;99.90;;;;;;5031684;28;20302;-80
2022/03/19 06:07:41;;;;;;;17.73;15.77;;;4.60;99.90;;;;;;5032673;28;20313;-81
2022/03/19 06:10:11;;;;;;;21.83;16.77;;;4.70;99.90;;;;;;5035410;28;20237;-80
2022/03/19 06:12:40;;;;;;;19.52;15.45;;;4.70;99.90;;;;;;5035430;28;20301;-82
2022/03/19 06:15:10;;;;;;;17.17;15.18;;;4.80;99.90;;;;;;5035794;28;20210;-81
2022/03/19 06:17:38;;;;;;;17.77;15.65;;;4.80;99.90;;;;;;5035394;28;20237;-81
2022/03/19 06:20:07;;;;;;;18.70;15.80;;;4.80;99.90;;;;;;5035359;28;20209;-80
2022/03/19 06:22:40;;;;;;;21.13;17.58;;;4.80;99.90;;;;;;5035095;28;20226;-80
2022/03/19 06:25:09;;;;;;;19.65;15.10;;;4.80;99.90;;;;;;5035182;28;20236;-81
2022/03/19 06:27:37;;;;;;;21.70;17.33;;;4.80;99.90;;;;;;5035049;28;20237;-81
2022/03/19 06:30:08;;;;;;;21.08;15.32;;;4.90;99.90;;;;;;5035247;28;20293;-80
2022/03/19 06:32:38;;;;;;;21.02;14.98;;;4.80;99.90;;;;;;5035024;28;20206;-81
2022/03/19 06:35:07;;;;;;;17.27;15.55;;;4.90;99.90;;;;;;5035004;28;20209;-80
2022/03/19 06:37:35;;;;;;;24.08;16.50;;;4.90;99.90;;;;;;5035130;28;20218;-80
2022/03/19 06:40:06;;;;;;;22.38;16.17;;;4.90;99.90;;;;;;5035043;28;20374;-81
2022/03/19 06:42:35;;;;;;;18.80;15.77;;;5.00;99.90;;;;;;5034928;28;20241;-81
2022/03/19 06:45:03;;;;;;;17.85;15.93;;;5.00;99.90;;;;;;5034824;28;20301;-81
2022/03/19 06:47:32;;;;;;;17.17;15.00;;;5.10;99.90;;;;;;5034739;28;20206;-82
2022/03/19 06:50:00;;;;;;;19.65;15.48;;;5.20;99.90;;;;;;5034904;28;20305;-80
2022/03/19 06:52:29;;;;;;;14.57;12.75;;;5.30;99.90;;;;;;5034175;28;20329;-80
2022/03/19 06:54:58;;;;;;;15.63;13.68;;;5.40;99.90;;;;;;5034840;28;20202;-80
2022/03/19 06:57:27;;;;;;;18.25;14.13;;;5.50;99.90;;;;;;5034466;28;20206;-80
2022/03/19 06:59:55;;;;;;;18.67;15.48;;;5.50;99.90;;;;;;5034678;28;20290;-81
2022/03/19 07:02:24;;;;;;;16.98;14.18;;;5.60;99.90;;;;;;5034188;28;20313;-80
2022/03/19 07:04:52;;;;;;;14.18;12.02;;;5.70;99.90;;;;;;5034473;28;20261;-81
2022/03/19 07:07:20;;;;;;;19.83;13.75;;;5.70;99.90;;;;;;5034479;28;20293;-81
2022/03/19 07:09:49;;;;;;;22.92;14.27;;;5.80;99.90;;;;;;5034128;28;20253;-81
2022/03/19 07:12:19;;;;;;;15.95;13.40;;;5.80;99.90;;;;;;5034414;28;20222;-81
2022/03/19 07:14:47;;;;;;;23.02;14.75;;;5.80;99.90;;;;;;5034475;28;20208;-80
2022/03/19 07:17:16;;;;;;;16.45;13.60;;;5.90;99.90;;;;;;5034541;28;20280;-80
2022/03/19 07:19:44;;;;;;;14.88;11.55;;;5.90;99.60;;;;;;5033968;28;20237;-80
2022/03/19 07:22:13;;;;;;;17.23;13.07;;;6.00;99.30;;;;;;5033725;28;20226;-81
2022/03/19 07:24:43;;;;;;;15.07;13.38;;;6.00;99.30;;;;;;5034769;28;20297;-80
2022/03/19 07:27:11;;;;;;;14.82;12.60;;;6.10;98.20;;;;;;5034335;28;20261;-80
2022/03/19 07:29:41;;;;;;;20.40;12.65;;;6.10;97.40;;;;;;5033415;28;20230;-81
2022/03/19 07:32:10;;;;;;;20.23;12.57;;;6.10;98.30;;;;;;5033897;28;20314;-80
2022/03/19 07:34:39;;;;;;;12.88;10.98;;;6.20;97.60;;;;;;5033756;28;20217;-81
2022/03/19 07:37:07;;;;;;;14.07;11.00;;;6.30;97.80;;;;;;5033978;28;20214;-81
2022/03/19 07:39:36;;;;;;;15.80;10.55;;;6.40;95.70;;;;;;5033825;28;20233;-80
2022/03/19 07:42:03;;;;;;;9.38;8.48;;;6.50;95.20;;;;;;5033680;28;20249;-81
2022/03/19 07:44:32;;;;;;;12.55;8.85;;;6.60;91.70;;;;;;5033771;28;20226;-81
2022/03/19 07:47:01;;;;;;;9.32;8.45;;;6.70;91.80;;;;;;5034123;28;20294;-80
2022/03/19 07:49:30;;;;;;;13.73;7.68;;;6.80;91.10;;;;;;5033941;28;20224;-80
2022/03/19 07:51:58;;;;;;;10.05;9.05;;;6.90;90.30;;;;;;5033299;28;20226;-81
2022/03/19 07:54:27;;;;;;;8.93;8.02;;;7.00;90.30;;;;;;5033426;28;20218;-81
2022/03/19 07:56:56;;;;;;;10.30;8.75;;;7.20;87.20;;;;;;5033323;28;20277;-80
2022/03/19 07:59:25;;;;;;;10.27;9.13;;;7.30;87.30;;;;;;5033480;28;20206;-80
2022/03/19 08:01:53;;;;;;;9.48;8.50;;;7.40;86.90;;;;;;5033082;28;20261;-81
2022/03/19 08:04:23;;;;;;;12.90;8.10;;;7.50;83.60;;;;;;5033331;28;20304;-81
2022/03/19 08:06:54;;;;;;;14.85;8.75;;;7.70;83.20;;;;;;5033406;28;20241;-80
2022/03/19 08:09:28;;;;;;;14.25;9.05;;;7.80;82.70;;;;;;5033358;28;20232;-80
2022/03/19 08:11:56;;;;;;;14.48;8.40;;;7.80;80.90;;;;;;5032906;28;20329;-80
2022/03/19 08:14:26;;;;;;;10.13;8.50;;;7.90;78.40;;;;;;5032968;28;20294;-80
2022/03/19 08:16:55;;;;;;;11.75;9.65;;;7.90;74.80;;;;;;5033553;28;20202;-81
2022/03/19 08:19:25;;;;;;;9.70;8.70;;;7.90;77.40;;;;;;5033121;28;20296;-79
2022/03/19 08:21:54;;;;;;;9.82;8.32;;;7.90;77.20;;;;;;5032904;28;20234;-80
2022/03/19 08:24:25;;;;;;;9.35;8.43;;;8.00;78.20;;;;;;5033278;28;20210;-81
2022/03/19 08:26:53;;;;;;;10.15;8.85;;;8.10;77.50;;;;;;5032900;28;20209;-81
2022/03/19 08:29:25;;;;;;;11.50;9.48;;;8.20;77.40;;;;;;5033058;28;20317;-81
2022/03/19 08:31:53;;;;;;;18.00;9.73;;;8.30;77.10;;;;;;5031930;28;20227;-80
2022/03/19 08:34:22;;;;;;;13.93;9.88;;;8.30;77.30;;;;;;5032835;28;20225;-81
2022/03/19 08:36:52;;;;;;;11.57;9.88;;;8.40;76.30;;;;;;5032770;28;20229;-80
2022/03/19 08:42:06;;;;;;;13.90;11.10;;;8.70;76.00;;;;;;5033176;28;20227;-81
2022/03/19 08:44:34;;;;;;;9.77;8.70;;;8.80;75.20;;;;;;5032984;28;20289;-80
2022/03/19 08:47:03;;;;;;;10.57;9.55;;;8.90;75.10;;;;;;5032479;28;20285;-80
2022/03/19 08:49:31;;;;;;;12.00;10.20;;;9.10;75.90;;;;;;5032442;28;20225;-81
2022/03/19 08:52:01;;;;;;;18.95;12.30;;;9.30;75.40;;;;;;5032137;28;20254;-80
2022/03/19 08:54:30;;;;;;;14.65;10.57;;;9.50;75.20;;;;;;5032998;28;20301;-80
2022/03/19 08:56:58;;;;;;;10.75;9.75;;;9.90;74.50;;;;;;5032642;28;20293;-80
2022/03/19 08:59:27;;;;;;;12.80;10.45;;;10.40;73.20;;;;;;5032450;28;20290;-80
2022/03/19 09:01:55;;;;;;;11.90;10.68;;;11.00;74.50;;;;;;5032078;28;20241;-80
2022/03/19 09:04:24;;;;;;;12.40;10.77;;;11.70;70.00;;;;;;5032480;28;20202;-81
2022/03/19 09:06:52;;;;;;;14.82;11.75;;;12.60;70.40;;;;;;5032386;28;20237;-81
2022/03/19 09:09:22;;;;;;;14.52;10.98;;;13.40;67.40;;;;;;5032395;28;20269;-81
2022/03/19 09:11:51;;;;;;;14.52;12.38;;;14.00;65.00;;;;;;5032029;28;20253;-81
2022/03/19 09:14:20;;;;;;;14.13;11.52;;;14.70;62.40;;;;;;5032407;28;20234;-80
2022/03/19 09:16:48;;;;;;;15.98;11.88;;;15.20;61.30;;;;;;5032239;28;20206;-81
2022/03/19 09:19:17;;;;;;;14.13;11.40;;;15.90;59.40;;;;;;5032372;28;20210;-81
2022/03/19 09:21:45;;;;;;;14.75;12.40;;;16.20;57.40;;;;;;5032051;28;20257;-81
2022/03/19 09:24:15;;;;;;;16.23;11.63;;;16.60;58.40;;;;;;5032338;28;20237;-81
2022/03/19 09:26:45;;;;;;;12.45;11.15;;;16.60;56.30;;;;;;5032215;28;20228;-80
2022/03/19 09:29:15;;;;;;;13.73;12.27;;;16.60;56.50;;;;;;5032172;28;20233;-80
2022/03/19 09:31:43;;;;;;;13.90;11.75;;;16.90;56.90;;;;;;5032054;28;20233;-80
2022/03/19 09:34:12;;;;;;;20.27;13.95;;;16.80;54.90;;;;;;5032335;28;20202;-80
2022/03/19 09:36:46;;;;;;;13.48;12.07;;;16.90;55.70;;;;;;5032010;28;20206;-81
2022/03/19 09:39:15;;;;;;;15.75;12.43;;;17.20;52.90;;;;;;5032302;28;20214;-81
2022/03/19 09:41:45;;;;;;;15.43;12.95;;;17.60;54.20;;;;;;5032958;28;20300;-80
2022/03/19 09:44:16;;;;;;;19.85;12.63;;;18.20;52.10;;;;;;5036381;28;20245;-81
2022/03/19 09:46:47;;;;;;;16.50;12.05;;;18.40;50.90;;;;;;5036121;28;20206;-81
2022/03/19 09:49:16;;;;;;;12.82;11.50;;;18.30;52.10;;;;;;5035792;28;20217;-80
2022/03/19 09:51:50;;;;;;;13.57;12.23;;;18.70;50.20;;;;;;5035752;28;20273;-81
2022/03/19 09:54:19;;;;;;;12.98;11.73;;;18.80;48.90;;;;;;5036044;28;20293;-80
2022/03/19 09:56:50;;;;;;;13.27;11.95;;;18.80;50.80;;;;;;5035913;28;20261;-80
2022/03/19 09:59:18;;;;;;;12.55;11.45;;;18.90;49.30;;;;;;5036300;28;20198;-80
2022/03/19 10:01:47;;;;;;;16.10;12.02;;;18.70;49.10;;;;;;5035501;28;20237;-80
2022/03/19 10:04:18;;;;;;;17.27;12.80;;;18.60;48.60;;;;;;5035581;28;20245;-80
2022/03/19 10:09:42;;;;;;;12.65;10.98;;;18.80;48.80;;;;;;5035742;28;20229;-81
2022/03/19 10:12:17;;;;;;;11.88;10.65;;;18.60;48.10;;;;;;5035379;28;20436;-80
2022/03/19 10:14:49;;;;;;;14.05;11.25;;;18.60;47.50;;;;;;5035432;28;20209;-80
2022/03/19 10:17:28;;;;;;;14.77;11.60;;;18.40;47.10;;;;;;5035427;28;20274;-80
2022/03/19 10:20:03;;;;;;;13.70;11.27;;;18.30;46.60;;;;;;5035832;28;20207;-80
2022/03/19 10:22:32;;;;;;;11.77;10.50;;;18.30;45.40;;;;;;5035121;28;20254;-81
2022/03/19 10:25:03;;;;;;;11.77;10.65;;;18.10;45.70;;;;;;5035482;28;20253;-80
2022/03/19 10:27:37;;;;;;;11.50;10.30;;;17.80;44.50;;;;;;5035080;28;20206;-80
2022/03/19 10:30:11;;;;;;;12.13;10.93;;;17.70;46.30;;;;;;5035054;28;20217;-80
2022/03/19 10:32:41;;;;;;;23.60;11.45;;;18.10;45.70;;;;;;5035207;28;20218;-80
2022/03/19 10:35:27;;;;;;;16.40;11.38;;;18.00;44.70;;;;;;5035109;28;20242;-81
2022/03/19 10:37:57;;;;;;;11.02;9.77;;;17.90;43.40;;;;;;5035157;28;20218;-80
2022/03/19 10:40:37;;;;;;;11.75;10.55;;;18.10;45.20;;;;;;5034639;28;20234;-80
2022/03/19 10:43:09;;;;;;;11.88;10.45;;;18.60;44.50;;;;;;5035147;28;20249;-80
2022/03/19 10:45:44;;;;;;;15.65;11.13;;;18.70;43.90;;;;;;5034926;28;20234;-80
2022/03/19 10:48:13;;;;;;;11.55;10.35;;;18.80;44.80;;;;;;5035017;28;20222;-80
2022/03/19 10:50:42;;;;;;;10.93;10.02;;;19.20;44.10;;;;;;5034277;28;20306;-81
2022/03/19 10:53:11;;;;;;;11.38;10.27;;;19.10;42.20;;;;;;5034072;28;20241;-80
2022/03/19 10:55:39;;;;;;;11.95;10.85;;;18.70;41.40;;;;;;5034782;28;20256;-80
2022/03/19 10:58:10;;;;;;;11.38;9.77;;;18.60;41.90;;;;;;5034462;28;20300;-80
2022/03/19 11:01:01;;;;;;;10.20;9.30;;;18.70;43.20;;;;;;5033901;28;20218;-81
2022/03/19 11:03:31;;;;;;;10.65;9.50;;;18.80;41.20;;;;;;5034751;28;20199;-80
2022/03/19 11:06:04;;;;;;;11.20;9.88;;;18.80;40.80;;;;;;5034418;28;20216;-80
2022/03/19 11:08:38;;;;;;;12.10;10.05;;;18.90;40.90;;;;;;5034062;28;20237;-81
2022/03/19 11:11:10;;;;;;;11.98;10.82;;;18.90;40.90;;;;;;5033916;28;20310;-80
2022/03/19 11:13:43;;;;;;;10.90;9.82;;;19.00;40.60;;;;;;5034249;28;20241;-80
2022/03/19 11:16:13;;;;;;;10.95;9.48;;;19.40;40.20;;;;;;5034441;28;20210;-81
2022/03/19 11:18:43;;;;;;;10.55;9.20;;;19.20;40.70;;;;;;5034313;28;20202;-80
2022/03/19 11:21:14;;;;;;;11.23;9.93;;;19.00;39.60;;;;;;5033527;28;20253;-81
2022/03/19 11:23:49;;;;;;;10.75;9.32;;;19.00;40.30;;;;;;5034422;28;20206;-82
2022/03/19 11:26:23;;;;;;;12.30;9.57;;;19.20;39.70;;;;;;5034506;28;20209;-81
2022/03/19 11:28:53;;;;;;;13.70;10.80;;;19.30;39.50;;;;;;5034343;28;20210;-81
2022/03/19 11:31:27;;;;;;;12.48;10.63;;;19.50;37.90;;;;;;5033499;28;20276;-81
2022/03/19 11:33:59;;;;;;;11.52;10.32;;;19.30;38.60;;;;;;5033849;28;20293;-81
2022/03/19 11:36:27;;;;;;;11.65;10.32;;;19.20;38.20;;;;;;5033862;28;20226;-81
2022/03/19 11:38:56;;;;;;;11.73;10.38;;;19.20;39.40;;;;;;5034478;28;20198;-81
2022/03/19 11:41:27;;;;;;;12.18;10.30;;;19.20;38.50;;;;;;5033645;28;20272;-80
2022/03/19 11:44:23;;;;;;;11.13;10.02;;;19.30;37.50;;;;;;5033753;28;20206;-81
2022/03/19 11:47:02;;;;;;;13.68;9.63;;;19.20;38.00;;;;;;5033819;28;20290;-80
2022/03/19 11:49:48;;;;;;;12.82;10.75;;;19.20;37.10;;;;;;5033701;28;20224;-80
2022/03/19 11:52:18;;;;;;;11.23;9.73;;;19.10;37.50;;;;;;5033178;28;20231;-80
2022/03/19 11:55:06;;;;;;;12.95;8.88;;;19.00;36.70;;;;;;5033543;28;20218;-81
2022/03/19 11:57:55;;;;;;;13.43;10.05;;;19.00;38.20;;;;;;5033378;28;20305;-81
2022/03/19 12:00:26;;;;;;;10.63;9.52;;;19.10;35.70;;;;;;5033230;28;20214;-80
2022/03/19 12:03:13;;;;;;;13.65;9.55;;;19.30;36.10;;;;;;5033274;28;20237;-80
2022/03/19 12:05:43;;;;;;;12.55;10.27;;;19.30;35.30;;;;;;5032336;28;20214;-79
2022/03/19 12:08:13;;;;;;;12.32;10.65;;;19.20;36.50;;;;;;5033709;28;20276;-81
2022/03/19 12:10:57;;;;;;;14.93;10.10;;;19.70;34.50;;;;;;5033108;28;20280;-80
2022/03/19 12:13:41;;;;;;;14.50;10.45;;;19.40;36.30;;;;;;5033320;28;20207;-80
2022/03/19 12:16:12;;;;;;;10.55;9.57;;;19.10;36.40;;;;;;5033285;28;20234;-80
2022/03/19 12:18:46;;;;;;;10.73;9.27;;;19.20;36.70;;;;;;5033478;28;20211;-80
2022/03/19 12:21:23;;;;;;;11.32;10.15;;;19.20;35.60;;;;;;5032955;28;20262;-80
2022/03/19 12:24:33;;;;;;;10.98;9.40;;;19.20;34.10;;;;;;5033071;28;20249;-79
2022/03/19 12:27:01;;;;;;;12.43;10.38;;;18.80;32.80;;;;;;5018359;28;20231;-80
2022/03/19 12:29:32;;;;;;;15.63;10.60;;;18.30;34.70;;;;;;5033099;28;20222;-80
2022/03/19 12:32:06;;;;;;;12.32;9.73;;;18.30;35.70;;;;;;5032625;28;20234;-80
2022/03/19 12:34:34;;;;;;;15.80;11.90;;;18.50;36.30;;;;;;5032928;28;20210;-80
2022/03/19 12:37:04;;;;;;;15.80;10.82;;;18.60;37.70;;;;;;5032655;28;20240;-81
2022/03/19 12:39:32;;;;;;;18.38;11.00;;;18.90;36.80;;;;;;5032804;28;20213;-81
2022/03/19 12:42:01;;;;;;;14.23;10.52;;;19.00;36.50;;;;;;5032602;28;20282;-80
2022/03/19 12:44:36;;;;;;;19.63;10.02;;;18.90;35.40;;;;;;5032983;28;20262;-81
2022/03/19 12:47:09;;;;;;;11.50;10.38;;;18.80;35.70;;;;;;5032876;28;20210;-81
2022/03/19 12:49:37;;;;;;;12.30;10.20;;;18.90;36.70;;;;;;5032210;28;20225;-81
2022/03/19 12:52:08;;;;;;;11.68;10.57;;;19.00;36.30;;;;;;5031965;28;20265;-81
2022/03/19 12:54:36;;;;;;;12.00;9.77;;;19.20;36.60;;;;;;5032219;28;20232;-81
2022/03/19 12:57:10;;;;;;;12.68;10.73;;;19.10;36.90;;;;;;5032681;28;20233;-81
2022/03/19 12:59:48;;;;;;;14.50;10.82;;;19.20;36.30;;;;;;5032544;28;20206;-81
2022/03/19 13:02:18;;;;;;;9.82;8.88;;;19.30;36.10;;;;;;5032371;28;20249;-81